sensor_id;sensor_type;location;lat;lon;timestamp;P1;durP1;ratioP1;P2;durP2;ratioP2
83199;SDS011;73092;49.132;8.920;2024-01-30T00:01:53;22.67;;;12.77;;
83199;SDS011;73092;49.132;8.920;2024-01-30T00:04:19;25.38;;;12.88;;
83199;SDS011;73092;49.132;8.920;2024-01-30T00:06:44;25.05;;;13.73;;
83199;SDS011;73092;49.132;8.920;2024-01-30T00:09:10;22.30;;;12.77;;
83199;SDS011;73092;49.132;8.920;2024-01-30T00:11:38;22.33;;;12.32;;
83199;SDS011;73092;49.132;8.920;2024-01-30T00:14:04;23.42;;;12.65;;
83199;SDS011;73092;49.132;8.920;2024-01-30T00:16:30;19.58;;;12.35;;
83199;SDS011;73092;49.132;8.920;2024-01-30T00:18:56;24.55;;;14.02;;
83199;SDS011;73092;49.132;8.920;2024-01-30T00:21:22;26.73;;;14.77;;
83199;SDS011;73092;49.132;8.920;2024-01-30T00:23:47;21.85;;;13.13;;
83199;SDS011;73092;49.132;8.920;2024-01-30T00:26:13;27.42;;;13.88;;
83199;SDS011;73092;49.132;8.920;2024-01-30T00:28:42;25.10;;;13.10;;
83199;SDS011;73092;49.132;8.920;2024-01-30T00:31:08;22.48;;;13.65;;
83199;SDS011;73092;49.132;8.920;2024-01-30T00:33:38;24.50;;;12.45;;
83199;SDS011;73092;49.132;8.920;2024-01-30T00:36:04;23.73;;;14.00;;
83199;SDS011;73092;49.132;8.920;2024-01-30T00:38:30;28.55;;;15.02;;
83199;SDS011;73092;49.132;8.920;2024-01-30T00:40:56;23.27;;;14.17;;
83199;SDS011;73092;49.132;8.920;2024-01-30T00:43:22;22.80;;;15.05;;
83199;SDS011;73092;49.132;8.920;2024-01-30T00:45:49;23.77;;;13.77;;
83199;SDS011;73092;49.132;8.920;2024-01-30T00:48:17;22.92;;;13.32;;
83199;SDS011;73092;49.132;8.920;2024-01-30T00:50:42;22.55;;;13.32;;
83199;SDS011;73092;49.132;8.920;2024-01-30T00:53:07;24.73;;;14.27;;
83199;SDS011;73092;49.132;8.920;2024-01-30T00:55:33;25.73;;;14.93;;
83199;SDS011;73092;49.132;8.920;2024-01-30T00:57:58;20.97;;;12.27;;
83199;SDS011;73092;49.132;8.920;2024-01-30T01:00:23;21.77;;;12.97;;
83199;SDS011;73092;49.132;8.920;2024-01-30T01:02:53;27.13;;;13.75;;
83199;SDS011;73092;49.132;8.920;2024-01-30T01:05:20;21.20;;;13.40;;
83199;SDS011;73092;49.132;8.920;2024-01-30T01:07:45;28.98;;;13.80;;
83199;SDS011;73092;49.132;8.920;2024-01-30T01:10:12;27.92;;;14.10;;
83199;SDS011;73092;49.132;8.920;2024-01-30T01:12:38;21.20;;;14.98;;
83199;SDS011;73092;49.132;8.920;2024-01-30T01:15:04;21.75;;;14.40;;
83199;SDS011;73092;49.132;8.920;2024-01-30T01:17:30;28.23;;;15.07;;
83199;SDS011;73092;49.132;8.920;2024-01-30T01:19:56;31.80;;;16.60;;
83199;SDS011;73092;49.132;8.920;2024-01-30T01:22:22;29.80;;;16.00;;
83199;SDS011;73092;49.132;8.920;2024-01-30T01:24:47;25.83;;;15.23;;
83199;SDS011;73092;49.132;8.920;2024-01-30T01:27:13;26.40;;;15.80;;
83199;SDS011;73092;49.132;8.920;2024-01-30T01:29:38;25.63;;;15.15;;
83199;SDS011;73092;49.132;8.920;2024-01-30T01:32:04;29.10;;;13.93;;
83199;SDS011;73092;49.132;8.920;2024-01-30T01:34:29;26.10;;;14.27;;
83199;SDS011;73092;49.132;8.920;2024-01-30T01:36:55;28.30;;;16.17;;
83199;SDS011;73092;49.132;8.920;2024-01-30T01:39:21;25.10;;;14.85;;
83199;SDS011;73092;49.132;8.920;2024-01-30T01:44:13;27.73;;;14.87;;
83199;SDS011;73092;49.132;8.920;2024-01-30T01:46:39;27.95;;;15.55;;
83199;SDS011;73092;49.132;8.920;2024-01-30T01:49:05;31.08;;;16.88;;
83199;SDS011;73092;49.132;8.920;2024-01-30T01:51:33;25.67;;;16.25;;
83199;SDS011;73092;49.132;8.920;2024-01-30T01:56:27;24.80;;;13.13;;
83199;SDS011;73092;49.132;8.920;2024-01-30T01:58:54;29.48;;;14.32;;
83199;SDS011;73092;49.132;8.920;2024-01-30T02:01:20;25.75;;;15.05;;
83199;SDS011;73092;49.132;8.920;2024-01-30T02:03:46;28.60;;;15.80;;
83199;SDS011;73092;49.132;8.920;2024-01-30T02:06:13;23.92;;;14.48;;
83199;SDS011;73092;49.132;8.920;2024-01-30T02:08:40;22.77;;;14.45;;
83199;SDS011;73092;49.132;8.920;2024-01-30T02:11:05;30.00;;;15.17;;
83199;SDS011;73092;49.132;8.920;2024-01-30T02:13:31;25.27;;;14.60;;
83199;SDS011;73092;49.132;8.920;2024-01-30T02:15:56;34.70;;;16.00;;
83199;SDS011;73092;49.132;8.920;2024-01-30T02:18:22;24.77;;;14.37;;
83199;SDS011;73092;49.132;8.920;2024-01-30T02:20:47;23.10;;;14.82;;
83199;SDS011;73092;49.132;8.920;2024-01-30T02:23:15;28.25;;;15.48;;
83199;SDS011;73092;49.132;8.920;2024-01-30T02:25:40;25.88;;;14.52;;
83199;SDS011;73092;49.132;8.920;2024-01-30T02:28:10;22.63;;;14.32;;
83199;SDS011;73092;49.132;8.920;2024-01-30T02:30:37;30.30;;;15.25;;
83199;SDS011;73092;49.132;8.920;2024-01-30T02:33:02;30.40;;;15.02;;
83199;SDS011;73092;49.132;8.920;2024-01-30T02:35:27;25.83;;;14.63;;
83199;SDS011;73092;49.132;8.920;2024-01-30T02:37:53;27.30;;;16.23;;
83199;SDS011;73092;49.132;8.920;2024-01-30T02:40:18;27.90;;;15.95;;
83199;SDS011;73092;49.132;8.920;2024-01-30T02:42:44;25.90;;;15.77;;
83199;SDS011;73092;49.132;8.920;2024-01-30T02:45:09;23.45;;;14.68;;
83199;SDS011;73092;49.132;8.920;2024-01-30T02:47:36;24.02;;;14.52;;
83199;SDS011;73092;49.132;8.920;2024-01-30T02:50:01;25.98;;;14.85;;
83199;SDS011;73092;49.132;8.920;2024-01-30T02:52:27;23.45;;;14.85;;
83199;SDS011;73092;49.132;8.920;2024-01-30T02:54:52;22.17;;;13.93;;
83199;SDS011;73092;49.132;8.920;2024-01-30T02:57:17;26.43;;;15.73;;
83199;SDS011;73092;49.132;8.920;2024-01-30T02:59:43;25.97;;;15.73;;
83199;SDS011;73092;49.132;8.920;2024-01-30T03:02:08;24.57;;;14.77;;
83199;SDS011;73092;49.132;8.920;2024-01-30T03:04:33;28.92;;;15.07;;
83199;SDS011;73092;49.132;8.920;2024-01-30T03:06:59;33.43;;;17.67;;
83199;SDS011;73092;49.132;8.920;2024-01-30T03:09:24;29.27;;;15.97;;
83199;SDS011;73092;49.132;8.920;2024-01-30T03:11:49;26.63;;;15.33;;
83199;SDS011;73092;49.132;8.920;2024-01-30T03:14:15;30.73;;;15.40;;
83199;SDS011;73092;49.132;8.920;2024-01-30T03:16:40;27.03;;;15.13;;
83199;SDS011;73092;49.132;8.920;2024-01-30T03:19:06;36.15;;;15.00;;
83199;SDS011;73092;49.132;8.920;2024-01-30T03:21:32;25.48;;;15.07;;
83199;SDS011;73092;49.132;8.920;2024-01-30T03:23:58;29.55;;;14.57;;
83199;SDS011;73092;49.132;8.920;2024-01-30T03:26:24;27.60;;;15.43;;
83199;SDS011;73092;49.132;8.920;2024-01-30T03:28:50;24.05;;;14.38;;
83199;SDS011;73092;49.132;8.920;2024-01-30T03:31:15;32.20;;;16.07;;
83199;SDS011;73092;49.132;8.920;2024-01-30T03:33:41;26.05;;;15.13;;
83199;SDS011;73092;49.132;8.920;2024-01-30T03:36:08;26.65;;;14.60;;
83199;SDS011;73092;49.132;8.920;2024-01-30T03:38:33;33.00;;;16.40;;
83199;SDS011;73092;49.132;8.920;2024-01-30T03:40:59;26.58;;;16.13;;
83199;SDS011;73092;49.132;8.920;2024-01-30T03:43:25;25.52;;;14.02;;
83199;SDS011;73092;49.132;8.920;2024-01-30T03:45:50;28.75;;;14.15;;
83199;SDS011;73092;49.132;8.920;2024-01-30T03:48:16;26.50;;;14.10;;
83199;SDS011;73092;49.132;8.920;2024-01-30T03:50:41;30.23;;;15.07;;
83199;SDS011;73092;49.132;8.920;2024-01-30T03:53:07;23.40;;;13.80;;
83199;SDS011;73092;49.132;8.920;2024-01-30T03:55:33;25.50;;;13.73;;
83199;SDS011;73092;49.132;8.920;2024-01-30T03:57:58;26.67;;;15.40;;
83199;SDS011;73092;49.132;8.920;2024-01-30T04:00:24;30.70;;;14.73;;
83199;SDS011;73092;49.132;8.920;2024-01-30T04:02:49;19.70;;;13.67;;
83199;SDS011;73092;49.132;8.920;2024-01-30T04:05:16;25.30;;;13.80;;
83199;SDS011;73092;49.132;8.920;2024-01-30T04:07:41;26.20;;;13.68;;
83199;SDS011;73092;49.132;8.920;2024-01-30T04:10:07;27.10;;;14.07;;
83199;SDS011;73092;49.132;8.920;2024-01-30T04:12:33;26.70;;;15.50;;
83199;SDS011;73092;49.132;8.920;2024-01-30T04:14:58;25.73;;;15.50;;
83199;SDS011;73092;49.132;8.920;2024-01-30T04:17:23;23.55;;;13.98;;
83199;SDS011;73092;49.132;8.920;2024-01-30T04:19:49;27.83;;;15.15;;
83199;SDS011;73092;49.132;8.920;2024-01-30T04:22:14;22.57;;;13.70;;
83199;SDS011;73092;49.132;8.920;2024-01-30T04:24:39;22.30;;;13.67;;
83199;SDS011;73092;49.132;8.920;2024-01-30T04:27:05;26.10;;;14.27;;
83199;SDS011;73092;49.132;8.920;2024-01-30T04:29:30;23.43;;;13.13;;
83199;SDS011;73092;49.132;8.920;2024-01-30T04:31:57;23.23;;;13.85;;
83199;SDS011;73092;49.132;8.920;2024-01-30T04:34:22;24.87;;;11.90;;
83199;SDS011;73092;49.132;8.920;2024-01-30T04:36:48;24.30;;;14.73;;
83199;SDS011;73092;49.132;8.920;2024-01-30T04:39:13;27.87;;;14.03;;
83199;SDS011;73092;49.132;8.920;2024-01-30T04:41:38;27.53;;;15.37;;
83199;SDS011;73092;49.132;8.920;2024-01-30T04:44:04;22.53;;;13.57;;
83199;SDS011;73092;49.132;8.920;2024-01-30T04:46:29;22.90;;;13.13;;
83199;SDS011;73092;49.132;8.920;2024-01-30T04:48:54;23.60;;;13.53;;
83199;SDS011;73092;49.132;8.920;2024-01-30T04:51:19;30.67;;;13.83;;
83199;SDS011;73092;49.132;8.920;2024-01-30T04:53:45;26.17;;;12.90;;
83199;SDS011;73092;49.132;8.920;2024-01-30T04:56:10;23.57;;;13.60;;
83199;SDS011;73092;49.132;8.920;2024-01-30T04:58:36;26.40;;;12.80;;
83199;SDS011;73092;49.132;8.920;2024-01-30T05:01:01;28.00;;;14.50;;
83199;SDS011;73092;49.132;8.920;2024-01-30T05:03:27;28.70;;;14.95;;
83199;SDS011;73092;49.132;8.920;2024-01-30T05:05:52;27.47;;;14.13;;
83199;SDS011;73092;49.132;8.920;2024-01-30T05:08:18;26.53;;;13.77;;
83199;SDS011;73092;49.132;8.920;2024-01-30T05:10:43;27.10;;;14.52;;
83199;SDS011;73092;49.132;8.920;2024-01-30T05:13:09;25.70;;;14.65;;
83199;SDS011;73092;49.132;8.920;2024-01-30T05:15:35;28.85;;;15.32;;
83199;SDS011;73092;49.132;8.920;2024-01-30T05:18:00;33.53;;;16.30;;
83199;SDS011;73092;49.132;8.920;2024-01-30T05:20:26;28.05;;;15.50;;
83199;SDS011;73092;49.132;8.920;2024-01-30T05:22:53;24.98;;;13.20;;
83199;SDS011;73092;49.132;8.920;2024-01-30T05:25:19;27.50;;;13.87;;
83199;SDS011;73092;49.132;8.920;2024-01-30T05:27:44;29.13;;;15.03;;
83199;SDS011;73092;49.132;8.920;2024-01-30T05:30:09;30.10;;;15.10;;
83199;SDS011;73092;49.132;8.920;2024-01-30T05:32:35;31.27;;;13.93;;
83199;SDS011;73092;49.132;8.920;2024-01-30T05:35:00;33.60;;;14.27;;
83199;SDS011;73092;49.132;8.920;2024-01-30T05:37:26;22.60;;;13.70;;
83199;SDS011;73092;49.132;8.920;2024-01-30T05:39:51;27.80;;;14.07;;
83199;SDS011;73092;49.132;8.920;2024-01-30T05:42:17;30.20;;;15.03;;
83199;SDS011;73092;49.132;8.920;2024-01-30T05:44:43;28.45;;;13.95;;
83199;SDS011;73092;49.132;8.920;2024-01-30T05:47:08;28.65;;;15.57;;
83199;SDS011;73092;49.132;8.920;2024-01-30T05:49:34;28.23;;;15.00;;
83199;SDS011;73092;49.132;8.920;2024-01-30T05:52:00;31.83;;;15.82;;
83199;SDS011;73092;49.132;8.920;2024-01-30T05:54:27;35.17;;;13.40;;
83199;SDS011;73092;49.132;8.920;2024-01-30T05:56:52;23.73;;;13.93;;
83199;SDS011;73092;49.132;8.920;2024-01-30T05:59:17;26.93;;;14.43;;
83199;SDS011;73092;49.132;8.920;2024-01-30T06:01:46;29.65;;;15.15;;
83199;SDS011;73092;49.132;8.920;2024-01-30T06:04:12;23.73;;;13.30;;
83199;SDS011;73092;49.132;8.920;2024-01-30T06:06:38;22.50;;;13.48;;
83199;SDS011;73092;49.132;8.920;2024-01-30T06:09:03;28.67;;;15.13;;
83199;SDS011;73092;49.132;8.920;2024-01-30T06:11:29;26.57;;;14.27;;
83199;SDS011;73092;49.132;8.920;2024-01-30T06:13:54;24.23;;;13.53;;
83199;SDS011;73092;49.132;8.920;2024-01-30T06:16:19;32.53;;;16.60;;
83199;SDS011;73092;49.132;8.920;2024-01-30T06:18:46;28.75;;;15.02;;
83199;SDS011;73092;49.132;8.920;2024-01-30T06:21:12;24.15;;;14.05;;
83199;SDS011;73092;49.132;8.920;2024-01-30T06:23:38;26.92;;;14.20;;
83199;SDS011;73092;49.132;8.920;2024-01-30T06:26:03;24.27;;;14.02;;
83199;SDS011;73092;49.132;8.920;2024-01-30T06:28:29;27.50;;;13.85;;
83199;SDS011;73092;49.132;8.920;2024-01-30T06:30:54;28.30;;;14.30;;
83199;SDS011;73092;49.132;8.920;2024-01-30T06:33:19;33.67;;;15.10;;
83199;SDS011;73092;49.132;8.920;2024-01-30T06:35:45;26.13;;;14.60;;
83199;SDS011;73092;49.132;8.920;2024-01-30T06:38:11;33.80;;;15.73;;
83199;SDS011;73092;49.132;8.920;2024-01-30T06:40:36;27.10;;;13.95;;
83199;SDS011;73092;49.132;8.920;2024-01-30T06:43:03;27.60;;;15.00;;
83199;SDS011;73092;49.132;8.920;2024-01-30T06:45:29;30.02;;;15.00;;
83199;SDS011;73092;49.132;8.920;2024-01-30T06:47:56;28.00;;;15.75;;
83199;SDS011;73092;49.132;8.920;2024-01-30T06:50:21;25.37;;;13.90;;
83199;SDS011;73092;49.132;8.920;2024-01-30T06:52:46;22.67;;;13.90;;
83199;SDS011;73092;49.132;8.920;2024-01-30T06:55:12;23.63;;;13.73;;
83199;SDS011;73092;49.132;8.920;2024-01-30T06:57:37;25.10;;;14.43;;
83199;SDS011;73092;49.132;8.920;2024-01-30T07:00:03;22.77;;;12.90;;
83199;SDS011;73092;49.132;8.920;2024-01-30T07:02:28;26.48;;;13.38;;
83199;SDS011;73092;49.132;8.920;2024-01-30T07:04:54;26.00;;;14.07;;
83199;SDS011;73092;49.132;8.920;2024-01-30T07:07:19;31.27;;;15.73;;
83199;SDS011;73092;49.132;8.920;2024-01-30T07:09:45;30.20;;;14.83;;
83199;SDS011;73092;49.132;8.920;2024-01-30T07:12:10;24.47;;;14.37;;
83199;SDS011;73092;49.132;8.920;2024-01-30T07:14:35;26.33;;;15.95;;
83199;SDS011;73092;49.132;8.920;2024-01-30T07:17:02;26.42;;;15.60;;
83199;SDS011;73092;49.132;8.920;2024-01-30T07:19:27;30.95;;;16.58;;
83199;SDS011;73092;49.132;8.920;2024-01-30T07:21:59;34.25;;;16.33;;
83199;SDS011;73092;49.132;8.920;2024-01-30T07:24:25;26.02;;;15.65;;
83199;SDS011;73092;49.132;8.920;2024-01-30T07:26:51;27.47;;;15.10;;
83199;SDS011;73092;49.132;8.920;2024-01-30T07:29:16;28.85;;;14.80;;
83199;SDS011;73092;49.132;8.920;2024-01-30T07:31:42;25.33;;;14.68;;
83199;SDS011;73092;49.132;8.920;2024-01-30T07:34:08;31.30;;;14.32;;
83199;SDS011;73092;49.132;8.920;2024-01-30T07:36:33;26.13;;;14.35;;
83199;SDS011;73092;49.132;8.920;2024-01-30T07:38:59;28.40;;;15.53;;
83199;SDS011;73092;49.132;8.920;2024-01-30T07:41:24;33.93;;;16.33;;
83199;SDS011;73092;49.132;8.920;2024-01-30T07:43:50;29.73;;;16.48;;
83199;SDS011;73092;49.132;8.920;2024-01-30T07:46:15;25.27;;;14.90;;
83199;SDS011;73092;49.132;8.920;2024-01-30T07:48:41;24.90;;;13.30;;
83199;SDS011;73092;49.132;8.920;2024-01-30T07:51:06;23.87;;;14.60;;
83199;SDS011;73092;49.132;8.920;2024-01-30T07:53:31;25.60;;;13.13;;
83199;SDS011;73092;49.132;8.920;2024-01-30T07:55:57;33.78;;;13.10;;
83199;SDS011;73092;49.132;8.920;2024-01-30T07:58:22;26.45;;;14.55;;
83199;SDS011;73092;49.132;8.920;2024-01-30T08:00:48;21.50;;;12.70;;
83199;SDS011;73092;49.132;8.920;2024-01-30T08:03:14;25.45;;;13.27;;
83199;SDS011;73092;49.132;8.920;2024-01-30T08:05:41;23.50;;;14.38;;
83199;SDS011;73092;49.132;8.920;2024-01-30T08:08:07;26.70;;;15.23;;
83199;SDS011;73092;49.132;8.920;2024-01-30T08:10:32;23.40;;;13.80;;
83199;SDS011;73092;49.132;8.920;2024-01-30T08:12:57;26.33;;;13.47;;
83199;SDS011;73092;49.132;8.920;2024-01-30T08:15:23;24.65;;;14.50;;
83199;SDS011;73092;49.132;8.920;2024-01-30T08:17:48;24.77;;;14.57;;
83199;SDS011;73092;49.132;8.920;2024-01-30T08:20:14;29.73;;;15.70;;
83199;SDS011;73092;49.132;8.920;2024-01-30T08:22:39;28.00;;;16.20;;
83199;SDS011;73092;49.132;8.920;2024-01-30T08:25:05;35.65;;;16.65;;
83199;SDS011;73092;49.132;8.920;2024-01-30T08:27:31;33.42;;;17.40;;
83199;SDS011;73092;49.132;8.920;2024-01-30T08:29:57;34.53;;;18.47;;
83199;SDS011;73092;49.132;8.920;2024-01-30T08:32:22;34.20;;;19.50;;
83199;SDS011;73092;49.132;8.920;2024-01-30T08:34:48;35.17;;;17.92;;
83199;SDS011;73092;49.132;8.920;2024-01-30T08:37:14;33.22;;;17.10;;
83199;SDS011;73092;49.132;8.920;2024-01-30T08:39:41;32.63;;;16.38;;
83199;SDS011;73092;49.132;8.920;2024-01-30T08:42:08;31.05;;;17.30;;
83199;SDS011;73092;49.132;8.920;2024-01-30T08:44:33;37.17;;;18.90;;
83199;SDS011;73092;49.132;8.920;2024-01-30T08:46:58;35.27;;;18.23;;
83199;SDS011;73092;49.132;8.920;2024-01-30T08:49:24;33.80;;;19.17;;
83199;SDS011;73092;49.132;8.920;2024-01-30T08:51:49;32.97;;;17.27;;
83199;SDS011;73092;49.132;8.920;2024-01-30T08:54:15;34.80;;;20.20;;
83199;SDS011;73092;49.132;8.920;2024-01-30T08:56:40;45.75;;;21.50;;
83199;SDS011;73092;49.132;8.920;2024-01-30T08:59:06;42.47;;;23.20;;
83199;SDS011;73092;49.132;8.920;2024-01-30T09:01:31;36.50;;;19.87;;
83199;SDS011;73092;49.132;8.920;2024-01-30T09:03:57;40.47;;;20.47;;
83199;SDS011;73092;49.132;8.920;2024-01-30T09:06:22;41.33;;;20.90;;
83199;SDS011;73092;49.132;8.920;2024-01-30T09:08:49;39.00;;;21.23;;
83199;SDS011;73092;49.132;8.920;2024-01-30T09:11:15;41.58;;;20.92;;
83199;SDS011;73092;49.132;8.920;2024-01-30T09:13:40;33.78;;;18.90;;
83199;SDS011;73092;49.132;8.920;2024-01-30T09:16:06;41.63;;;22.48;;
83199;SDS011;73092;49.132;8.920;2024-01-30T09:18:32;41.90;;;21.05;;
83199;SDS011;73092;49.132;8.920;2024-01-30T09:20:58;34.97;;;20.42;;
83199;SDS011;73092;49.132;8.920;2024-01-30T09:23:24;37.28;;;21.67;;
83199;SDS011;73092;49.132;8.920;2024-01-30T09:25:49;34.85;;;19.77;;
83199;SDS011;73092;49.132;8.920;2024-01-30T09:28:15;33.45;;;19.95;;
83199;SDS011;73092;49.132;8.920;2024-01-30T09:30:42;39.85;;;23.10;;
83199;SDS011;73092;49.132;8.920;2024-01-30T09:33:07;48.83;;;25.03;;
83199;SDS011;73092;49.132;8.920;2024-01-30T09:35:32;39.63;;;24.20;;
83199;SDS011;73092;49.132;8.920;2024-01-30T09:37:58;49.33;;;27.05;;
83199;SDS011;73092;49.132;8.920;2024-01-30T09:40:24;52.78;;;28.55;;
83199;SDS011;73092;49.132;8.920;2024-01-30T09:42:52;51.00;;;28.40;;
83199;SDS011;73092;49.132;8.920;2024-01-30T09:45:19;48.47;;;26.80;;
83199;SDS011;73092;49.132;8.920;2024-01-30T09:47:45;43.67;;;26.35;;
83199;SDS011;73092;49.132;8.920;2024-01-30T09:50:12;42.58;;;24.00;;
83199;SDS011;73092;49.132;8.920;2024-01-30T09:52:39;44.03;;;23.65;;
83199;SDS011;73092;49.132;8.920;2024-01-30T09:55:06;39.72;;;20.77;;
83199;SDS011;73092;49.132;8.920;2024-01-30T09:57:32;38.13;;;20.60;;
83199;SDS011;73092;49.132;8.920;2024-01-30T09:59:57;37.85;;;20.17;;
83199;SDS011;73092;49.132;8.920;2024-01-30T10:02:23;43.30;;;22.70;;
83199;SDS011;73092;49.132;8.920;2024-01-30T10:04:49;52.55;;;21.40;;
83199;SDS011;73092;49.132;8.920;2024-01-30T10:07:15;43.03;;;22.45;;
83199;SDS011;73092;49.132;8.920;2024-01-30T10:09:41;52.90;;;25.23;;
83199;SDS011;73092;49.132;8.920;2024-01-30T10:12:06;45.38;;;24.02;;
83199;SDS011;73092;49.132;8.920;2024-01-30T10:14:33;34.95;;;19.15;;
83199;SDS011;73092;49.132;8.920;2024-01-30T10:17:00;40.30;;;21.13;;
83199;SDS011;73092;49.132;8.920;2024-01-30T10:19:26;43.15;;;21.95;;
83199;SDS011;73092;49.132;8.920;2024-01-30T10:21:52;33.93;;;18.50;;
83199;SDS011;73092;49.132;8.920;2024-01-30T10:24:18;33.80;;;18.63;;
83199;SDS011;73092;49.132;8.920;2024-01-30T10:26:43;36.80;;;20.05;;
83199;SDS011;73092;49.132;8.920;2024-01-30T10:29:09;33.30;;;20.48;;
83199;SDS011;73092;49.132;8.920;2024-01-30T10:31:34;40.60;;;20.30;;
83199;SDS011;73092;49.132;8.920;2024-01-30T10:34:02;33.33;;;20.02;;
83199;SDS011;73092;49.132;8.920;2024-01-30T10:36:30;37.42;;;21.08;;
83199;SDS011;73092;49.132;8.920;2024-01-30T10:39:06;30.10;;;17.95;;
83199;SDS011;73092;49.132;8.920;2024-01-30T10:41:50;34.05;;;18.52;;
83199;SDS011;73092;49.132;8.920;2024-01-30T10:44:21;46.20;;;22.13;;
83199;SDS011;73092;49.132;8.920;2024-01-30T10:46:49;55.28;;;24.38;;
83199;SDS011;73092;49.132;8.920;2024-01-30T10:49:21;43.33;;;19.77;;
83199;SDS011;73092;49.132;8.920;2024-01-30T10:51:48;32.97;;;18.15;;
83199;SDS011;73092;49.132;8.920;2024-01-30T10:54:16;34.00;;;20.05;;
83199;SDS011;73092;49.132;8.920;2024-01-30T10:56:43;32.13;;;18.95;;
83199;SDS011;73092;49.132;8.920;2024-01-30T10:59:09;30.90;;;17.92;;
83199;SDS011;73092;49.132;8.920;2024-01-30T11:01:39;33.78;;;17.48;;
83199;SDS011;73092;49.132;8.920;2024-01-30T11:04:05;32.70;;;18.10;;
83199;SDS011;73092;49.132;8.920;2024-01-30T11:06:31;34.70;;;18.70;;
83199;SDS011;73092;49.132;8.920;2024-01-30T11:09:02;34.63;;;16.63;;
83199;SDS011;73092;49.132;8.920;2024-01-30T11:11:29;38.80;;;18.60;;
83199;SDS011;73092;49.132;8.920;2024-01-30T11:13:54;33.13;;;17.60;;
83199;SDS011;73092;49.132;8.920;2024-01-30T11:16:20;29.80;;;16.70;;
83199;SDS011;73092;49.132;8.920;2024-01-30T11:18:49;33.70;;;17.13;;
83199;SDS011;73092;49.132;8.920;2024-01-30T11:21:16;28.45;;;16.75;;
83199;SDS011;73092;49.132;8.920;2024-01-30T11:23:41;29.45;;;18.92;;
83199;SDS011;73092;49.132;8.920;2024-01-30T11:26:07;33.20;;;17.02;;
83199;SDS011;73092;49.132;8.920;2024-01-30T11:28:37;30.70;;;18.08;;
83199;SDS011;73092;49.132;8.920;2024-01-30T11:31:03;34.05;;;17.70;;
83199;SDS011;73092;49.132;8.920;2024-01-30T11:33:32;31.35;;;18.17;;
83199;SDS011;73092;49.132;8.920;2024-01-30T11:35:58;32.90;;;18.50;;
83199;SDS011;73092;49.132;8.920;2024-01-30T11:38:42;34.33;;;18.17;;
83199;SDS011;73092;49.132;8.920;2024-01-30T11:41:10;32.47;;;19.50;;
83199;SDS011;73092;49.132;8.920;2024-01-30T11:43:35;35.63;;;18.10;;
83199;SDS011;73092;49.132;8.920;2024-01-30T11:46:01;29.20;;;17.93;;
83199;SDS011;73092;49.132;8.920;2024-01-30T11:48:28;30.42;;;17.27;;
83199;SDS011;73092;49.132;8.920;2024-01-30T11:50:53;34.95;;;19.85;;
83199;SDS011;73092;49.132;8.920;2024-01-30T11:53:19;30.45;;;18.70;;
83199;SDS011;73092;49.132;8.920;2024-01-30T11:55:49;34.93;;;20.23;;
83199;SDS011;73092;49.132;8.920;2024-01-30T11:58:18;35.33;;;19.17;;
83199;SDS011;73092;49.132;8.920;2024-01-30T12:00:52;38.50;;;19.30;;
83199;SDS011;73092;49.132;8.920;2024-01-30T12:03:18;33.63;;;19.90;;
83199;SDS011;73092;49.132;8.920;2024-01-30T12:05:43;29.87;;;19.10;;
83199;SDS011;73092;49.132;8.920;2024-01-30T12:08:14;38.60;;;21.38;;
83199;SDS011;73092;49.132;8.920;2024-01-30T12:10:41;33.45;;;18.52;;
83199;SDS011;73092;49.132;8.920;2024-01-30T12:13:06;36.40;;;19.93;;
83199;SDS011;73092;49.132;8.920;2024-01-30T12:15:32;42.35;;;21.90;;
83199;SDS011;73092;49.132;8.920;2024-01-30T12:18:07;33.42;;;21.45;;
83199;SDS011;73092;49.132;8.920;2024-01-30T12:20:32;37.20;;;21.83;;
83199;SDS011;73092;49.132;8.920;2024-01-30T12:22:58;40.30;;;22.42;;
83199;SDS011;73092;49.132;8.920;2024-01-30T12:25:23;37.65;;;22.33;;
83199;SDS011;73092;49.132;8.920;2024-01-30T12:27:49;35.25;;;23.33;;
83199;SDS011;73092;49.132;8.920;2024-01-30T12:30:16;41.88;;;22.55;;
83199;SDS011;73092;49.132;8.920;2024-01-30T12:32:43;34.47;;;19.45;;
83199;SDS011;73092;49.132;8.920;2024-01-30T12:35:11;38.80;;;21.02;;
83199;SDS011;73092;49.132;8.920;2024-01-30T12:37:38;34.08;;;20.05;;
83199;SDS011;73092;49.132;8.920;2024-01-30T12:40:07;33.03;;;21.40;;
83199;SDS011;73092;49.132;8.920;2024-01-30T12:42:34;42.08;;;21.00;;
83199;SDS011;73092;49.132;8.920;2024-01-30T12:45:00;45.63;;;22.33;;
83199;SDS011;73092;49.132;8.920;2024-01-30T12:47:25;41.58;;;21.88;;
83199;SDS011;73092;49.132;8.920;2024-01-30T12:49:51;37.78;;;20.33;;
83199;SDS011;73092;49.132;8.920;2024-01-30T12:52:20;39.75;;;21.73;;
83199;SDS011;73092;49.132;8.920;2024-01-30T12:54:49;32.63;;;20.75;;
83199;SDS011;73092;49.132;8.920;2024-01-30T12:57:15;38.38;;;21.30;;
83199;SDS011;73092;49.132;8.920;2024-01-30T12:59:41;38.58;;;21.13;;
83199;SDS011;73092;49.132;8.920;2024-01-30T13:02:07;38.75;;;22.45;;
83199;SDS011;73092;49.132;8.920;2024-01-30T13:04:33;45.10;;;24.08;;
83199;SDS011;73092;49.132;8.920;2024-01-30T13:06:58;42.15;;;22.73;;
83199;SDS011;73092;49.132;8.920;2024-01-30T13:09:25;38.75;;;21.77;;
83199;SDS011;73092;49.132;8.920;2024-01-30T13:11:51;35.78;;;21.25;;
83199;SDS011;73092;49.132;8.920;2024-01-30T13:14:17;35.13;;;20.60;;
83199;SDS011;73092;49.132;8.920;2024-01-30T13:16:43;35.53;;;20.85;;
83199;SDS011;73092;49.132;8.920;2024-01-30T13:19:08;35.92;;;20.25;;
83199;SDS011;73092;49.132;8.920;2024-01-30T13:21:33;35.07;;;20.73;;
83199;SDS011;73092;49.132;8.920;2024-01-30T13:23:59;40.40;;;20.17;;
83199;SDS011;73092;49.132;8.920;2024-01-30T13:26:24;36.17;;;21.52;;
83199;SDS011;73092;49.132;8.920;2024-01-30T13:28:50;40.42;;;20.50;;
83199;SDS011;73092;49.132;8.920;2024-01-30T13:31:16;44.78;;;22.73;;
83199;SDS011;73092;49.132;8.920;2024-01-30T13:33:42;34.50;;;20.67;;
83199;SDS011;73092;49.132;8.920;2024-01-30T13:36:08;29.80;;;18.63;;
83199;SDS011;73092;49.132;8.920;2024-01-30T13:38:35;33.17;;;19.45;;
83199;SDS011;73092;49.132;8.920;2024-01-30T13:41:00;36.75;;;18.35;;
83199;SDS011;73092;49.132;8.920;2024-01-30T13:43:26;32.83;;;19.40;;
83199;SDS011;73092;49.132;8.920;2024-01-30T13:45:51;33.25;;;18.40;;
83199;SDS011;73092;49.132;8.920;2024-01-30T13:48:17;27.50;;;17.95;;
83199;SDS011;73092;49.132;8.920;2024-01-30T13:50:42;40.17;;;19.60;;
83199;SDS011;73092;49.132;8.920;2024-01-30T13:53:08;36.08;;;18.55;;
83199;SDS011;73092;49.132;8.920;2024-01-30T13:55:34;31.35;;;18.02;;
83199;SDS011;73092;49.132;8.920;2024-01-30T13:57:59;34.42;;;18.77;;
83199;SDS011;73092;49.132;8.920;2024-01-30T14:00:26;34.25;;;18.13;;
83199;SDS011;73092;49.132;8.920;2024-01-30T14:02:51;37.93;;;17.93;;
83199;SDS011;73092;49.132;8.920;2024-01-30T14:05:19;35.80;;;17.45;;
83199;SDS011;73092;49.132;8.920;2024-01-30T14:07:47;26.10;;;16.33;;
83199;SDS011;73092;49.132;8.920;2024-01-30T14:10:12;26.92;;;17.02;;
83199;SDS011;73092;49.132;8.920;2024-01-30T14:12:38;32.80;;;17.13;;
83199;SDS011;73092;49.132;8.920;2024-01-30T14:15:03;28.25;;;17.30;;
83199;SDS011;73092;49.132;8.920;2024-01-30T14:17:29;33.47;;;16.98;;
83199;SDS011;73092;49.132;8.920;2024-01-30T14:19:55;35.08;;;18.40;;